If you wish to contribute or participate in the discussions about articles you are invited to join SKYbrary as a registered user

 Actions

Zhezkazgan Airport

From SKYbrary Wiki

UAKD
Airport
ICAO: UAKD – IATA: DZN
Summary
Name Zhezkazgan Airport
Region Asia and Pacific
Territory Kazakhstan KZ.gif
Location Zhezkazgan
Serving Zhezkazgan
Elevation 381 m
1,250 ft
1,250 ft381 m
Coordinates 47° 42' 30.00" N, 67° 44' 0.00" E
Runways
Designator Length Width Surface ROPS
4/22 2600 m8,530.184 ft
42 m137.795 ft
CON /


METAR
Observation UAKD 271026Z 27013MPS 9999 OVC033CB 02/M07 Q1011 R22/0///65 NOSIG RMK QFE725/0967
Station Dzezkazgan
Date/Time 27 October 2020 10:26:00
Wind direction 270°
Wind speed kts
Lowest cloud amount overcast
Temperature 2°C
Dew point
Humidity 51%
QNH 1011 hPa
Weather condition n/a

Description

Zhezkazgan Airport is the international airport in Zhezkazgan, Kazakhstan.